Time;durP1;ratioP1;P1;durP2;ratioP2;P2;SDS_P1;SDS_P2;PMS_P1;PMS_P2;Temp;Humidity;BMP_temperature;BMP_pressure;BME280_temperature;BME280_humidity;BME280_pressure;Samples;Min_cycle;Max_cycle;Signal;HPM_P1;HPM_P2
2022/01/30 00:02:08;;;;;;;33.60;4.88;;;;;;;;;;5060251;27;97218;-75
2022/01/30 00:04:35;;;;;;;30.50;5.35;;;;;;;;;;5073489;27;95340;-74
2022/01/30 00:07:01;;;;;;;42.53;4.82;;;;;;;;;;5075902;27;95527;-77
2022/01/30 00:09:27;;;;;;;33.65;5.00;;;;;;;;;;5074121;27;95218;-75
2022/01/30 00:11:58;;;;;;;31.77;5.32;;;;;;;;;;5072869;27;96848;-76
2022/01/30 00:14:27;;;;;;;36.22;5.20;;;;;;;;;;5068241;27;97445;-76
2022/01/30 00:17:05;;;;;;;37.42;5.30;;;;;;;;;;5060927;27;95524;-74
2022/01/30 00:19:38;;;;;;;28.17;5.22;;;;;;;;;;5070161;27;97301;-75
2022/01/30 00:23:10;;;;;;;33.55;5.32;;;;;;;;;;5072594;27;96357;-77
2022/01/30 00:25:09;;;;;;;32.45;5.60;;;;;;;;;;5062699;27;97036;-75
2022/01/30 00:28:03;;;;;;;39.30;5.00;;;;;;;;;;5073393;27;97175;-76
2022/01/30 00:30:34;;;;;;;27.00;4.00;;;;;;;;;;5058259;27;97399;-73
2022/01/30 00:33:02;;;;;;;26.83;6.00;;;;;;;;;;5060930;27;96805;-73
2022/01/30 00:35:36;;;;;;;27.38;4.93;;;;;;;;;;5053069;27;97658;-74
2022/01/30 00:38:03;;;;;;;38.40;4.88;;;;;;;;;;5052512;27;95123;-74
2022/01/30 00:40:33;;;;;;;34.92;4.75;;;;;;;;;;5062959;27;97093;-74
2022/01/30 00:43:00;;;;;;;33.58;4.28;;;;;;;;;;5072468;27;97469;-74
2022/01/30 00:45:27;;;;;;;31.85;4.72;;;;;;;;;;5065358;27;95319;-73
2022/01/30 00:47:53;;;;;;;23.70;3.70;;;;;;;;;;5054956;27;96776;-73
2022/01/30 00:50:20;;;;;;;27.55;4.43;;;;;;;;;;5072913;27;97813;-73
2022/01/30 00:52:52;;;;;;;25.00;4.93;;;;;;;;;;5074092;27;95522;-73
2022/01/30 00:55:18;;;;;;;32.10;4.85;;;;;;;;;;5072231;27;97487;-73
2022/01/30 00:57:45;;;;;;;36.85;5.15;;;;;;;;;;5072837;27;95377;-74
2022/01/30 01:00:11;;;;;;;29.35;4.90;;;;;;;;;;5057911;27;96783;-74
2022/01/30 01:02:38;;;;;;;27.02;4.70;;;;;;;;;;5071626;27;98956;-74
2022/01/30 01:05:06;;;;;;;24.95;4.10;;;;;;;;;;5072852;27;95344;-74
2022/01/30 01:07:33;;;;;;;31.05;4.72;;;;;;;;;;5072536;27;96819;-74
2022/01/30 01:10:08;;;;;;;23.20;4.50;;;;;;;;;;5072848;27;97317;-74
2022/01/30 01:20:59;;;;;;;28.65;4.25;;;;;;;;;;5075816;27;96862;-75
2022/01/30 01:23:46;;;;;;;38.28;5.10;;;;;;;;;;5075505;27;97391;-74
2022/01/30 01:26:13;;;;;;;33.08;4.03;;;;;;;;;;5074103;27;95418;-74
2022/01/30 01:28:40;;;;;;;22.40;3.72;;;;;;;;;;5074769;27;97276;-74
2022/01/30 01:31:06;;;;;;;29.15;4.82;;;;;;;;;;5073433;27;97451;-75
2022/01/30 01:33:53;;;;;;;25.17;4.38;;;;;;;;;;5075796;27;95437;-76
2022/01/30 01:36:20;;;;;;;22.67;4.43;;;;;;;;;;5079208;27;96795;-74
2022/01/30 01:38:46;;;;;;;33.97;4.20;;;;;;;;;;5076126;27;95395;-74
2022/01/30 01:41:18;;;;;;;35.25;5.70;;;;;;;;;;5075987;27;96842;-74
2022/01/30 01:43:44;;;;;;;30.52;4.32;;;;;;;;;;5075408;27;95900;-75
2022/01/30 01:46:17;;;;;;;29.20;4.20;;;;;;;;;;5074495;27;96865;-75
2022/01/30 01:48:45;;;;;;;27.60;3.95;;;;;;;;;;5075654;27;97068;-75
2022/01/30 01:51:19;;;;;;;21.83;4.13;;;;;;;;;;5074644;27;98298;-74
2022/01/30 01:53:47;;;;;;;27.30;3.97;;;;;;;;;;5075957;27;95181;-74
2022/01/30 01:56:14;;;;;;;28.33;3.92;;;;;;;;;;5076273;27;97045;-74
2022/01/30 01:58:41;;;;;;;23.27;3.97;;;;;;;;;;5078267;27;97381;-74
2022/01/30 02:01:07;;;;;;;26.90;4.53;;;;;;;;;;5070898;27;96996;-74
2022/01/30 02:03:37;;;;;;;27.17;3.72;;;;;;;;;;5069766;27;96663;-76
2022/01/30 02:06:06;;;;;;;30.20;4.30;;;;;;;;;;5076146;27;95172;-76
2022/01/30 02:08:38;;;;;;;39.25;5.10;;;;;;;;;;5075769;27;97266;-75
2022/01/30 02:11:09;;;;;;;31.58;4.38;;;;;;;;;;5074549;27;97326;-76
2022/01/30 02:13:58;;;;;;;30.30;3.95;;;;;;;;;;5075651;27;95217;-75
2022/01/30 02:27:34;;;;;;;31.48;4.57;;;;;;;;;;5075375;27;95407;-74
2022/01/30 02:30:05;;;;;;;32.95;3.88;;;;;;;;;;5073717;27;96660;-75
2022/01/30 02:32:31;;;;;;;31.50;4.80;;;;;;;;;;5072580;27;97363;-77
2022/01/30 02:34:58;;;;;;;30.70;3.70;;;;;;;;;;5074023;27;95340;-76
2022/01/30 02:37:24;;;;;;;25.33;4.63;;;;;;;;;;5075286;27;96683;-74
2022/01/30 02:39:50;;;;;;;19.30;3.42;;;;;;;;;;5072619;27;97336;-76
2022/01/30 02:42:21;;;;;;;24.17;4.10;;;;;;;;;;5075427;27;95427;-76
2022/01/30 02:44:53;;;;;;;20.17;3.08;;;;;;;;;;5077429;27;96905;-77
2022/01/30 02:47:24;;;;;;;16.35;3.08;;;;;;;;;;5073919;27;95312;-74
2022/01/30 02:52:37;;;;;;;24.23;3.47;;;;;;;;;;5053761;27;97331;-73
2022/01/30 02:55:04;;;;;;;18.05;3.05;;;;;;;;;;5057970;27;95304;-74
2022/01/30 02:57:31;;;;;;;22.50;3.10;;;;;;;;;;5075012;27;96889;-74
2022/01/30 02:59:57;;;;;;;20.90;3.08;;;;;;;;;;5074226;27;97319;-74
2022/01/30 03:02:23;;;;;;;19.58;3.00;;;;;;;;;;5074008;27;95261;-74
2022/01/30 03:04:50;;;;;;;19.52;2.95;;;;;;;;;;5072938;27;96823;-74
2022/01/30 03:07:17;;;;;;;20.95;2.95;;;;;;;;;;5077162;27;97282;-74
2022/01/30 03:09:43;;;;;;;18.48;3.45;;;;;;;;;;5074360;27;95084;-74
2022/01/30 03:12:09;;;;;;;18.45;2.80;;;;;;;;;;5074382;27;97336;-74
2022/01/30 03:14:36;;;;;;;33.33;3.92;;;;;;;;;;5073705;27;95410;-74
2022/01/30 03:17:02;;;;;;;23.80;3.42;;;;;;;;;;5074694;27;96968;-74
2022/01/30 03:19:29;;;;;;;17.05;2.97;;;;;;;;;;5073141;27;97421;-74
2022/01/30 03:21:55;;;;;;;24.83;3.75;;;;;;;;;;5073761;27;95387;-74
2022/01/30 03:24:21;;;;;;;18.85;2.63;;;;;;;;;;5074433;27;96867;-74
2022/01/30 03:26:48;;;;;;;25.52;3.17;;;;;;;;;;5073876;27;97484;-75
2022/01/30 03:29:14;;;;;;;21.10;3.30;;;;;;;;;;5076693;27;95660;-74
2022/01/30 03:31:41;;;;;;;17.90;3.00;;;;;;;;;;5072746;27;97701;-74
2022/01/30 03:34:09;;;;;;;24.20;3.55;;;;;;;;;;5064938;27;95412;-74
2022/01/30 03:36:35;;;;;;;18.05;3.05;;;;;;;;;;5052618;27;97149;-74
2022/01/30 03:39:03;;;;;;;20.38;3.72;;;;;;;;;;5055833;27;97407;-74
2022/01/30 03:41:30;;;;;;;22.83;3.33;;;;;;;;;;5073374;27;95261;-74
2022/01/30 03:43:56;;;;;;;22.27;3.00;;;;;;;;;;5072723;27;97363;-74
2022/01/30 03:46:24;;;;;;;22.45;3.35;;;;;;;;;;5074090;27;97663;-74
2022/01/30 03:49:11;;;;;;;20.25;3.22;;;;;;;;;;5067129;27;96594;-74
2022/01/30 03:51:37;;;;;;;17.17;2.97;;;;;;;;;;5073839;27;97384;-77
2022/01/30 03:54:03;;;;;;;20.38;3.05;;;;;;;;;;5072736;27;95061;-77
2022/01/30 03:56:29;;;;;;;13.75;2.63;;;;;;;;;;5073684;27;96909;-75
2022/01/30 03:58:56;;;;;;;22.63;3.42;;;;;;;;;;5073350;27;97452;-77
2022/01/30 04:01:22;;;;;;;22.52;3.03;;;;;;;;;;5073544;27;95254;-75
2022/01/30 04:03:49;;;;;;;21.85;3.08;;;;;;;;;;5064674;27;96891;-75
2022/01/30 04:06:15;;;;;;;22.55;2.75;;;;;;;;;;5073941;27;97627;-76
2022/01/30 04:08:43;;;;;;;17.48;2.55;;;;;;;;;;5072098;27;95360;-75
2022/01/30 04:11:11;;;;;;;17.48;2.58;;;;;;;;;;5065097;27;96922;-75
2022/01/30 04:13:37;;;;;;;18.13;2.20;;;;;;;;;;5058823;27;96321;-75
2022/01/30 04:16:03;;;;;;;18.58;3.08;;;;;;;;;;5073189;27;95883;-74
2022/01/30 04:18:30;;;;;;;25.17;4.25;;;;;;;;;;5071114;27;97284;-74
2022/01/30 04:20:57;;;;;;;20.30;3.13;;;;;;;;;;5062005;27;95318;-74
2022/01/30 04:23:28;;;;;;;27.65;3.25;;;;;;;;;;5053421;27;97444;-76
2022/01/30 04:25:54;;;;;;;18.73;2.92;;;;;;;;;;5052174;27;97496;-75
2022/01/30 04:28:20;;;;;;;25.92;3.35;;;;;;;;;;5055778;27;95308;-76
2022/01/30 04:30:47;;;;;;;23.60;2.90;;;;;;;;;;5075149;27;96807;-77
2022/01/30 04:33:14;;;;;;;21.40;3.03;;;;;;;;;;5077603;27;97942;-75
2022/01/30 04:35:40;;;;;;;23.17;4.20;;;;;;;;;;5059288;27;96862;-75
2022/01/30 04:41:04;;;;;;;22.60;4.30;;;;;;;;;;5070524;27;95171;-76
2022/01/30 04:57:15;;;;;;;22.90;3.92;;;;;;;;;;5076380;27;95223;-75
2022/01/30 05:05:21;;;;;;;21.08;2.80;;;;;;;;;;5060496;27;96741;-75
2022/01/30 05:07:44;;;;;;;26.15;2.90;;;;;;;;;;5051759;27;97310;-77
2022/01/30 05:10:10;;;;;;;23.75;3.08;;;;;;;;;;5053672;27;95320;-75
2022/01/30 05:12:45;;;;;;;18.48;2.92;;;;;;;;;;5052267;27;95718;-74
2022/01/30 05:15:13;;;;;;;21.02;2.78;;;;;;;;;;5060171;27;98626;-73
2022/01/30 05:17:39;;;;;;;25.83;3.35;;;;;;;;;;5056425;27;95528;-73
2022/01/30 05:20:07;;;;;;;19.38;3.17;;;;;;;;;;5063499;27;97126;-74
2022/01/30 05:22:33;;;;;;;29.58;3.90;;;;;;;;;;5051902;27;95444;-74
2022/01/30 05:25:00;;;;;;;25.25;2.63;;;;;;;;;;5051931;27;97270;-74
2022/01/30 05:27:26;;;;;;;20.50;3.72;;;;;;;;;;5052158;27;97379;-74
2022/01/30 05:29:53;;;;;;;16.80;3.35;;;;;;;;;;5051434;27;95171;-75
2022/01/30 05:32:20;;;;;;;27.00;4.05;;;;;;;;;;5055972;27;96698;-77
2022/01/30 05:34:46;;;;;;;18.77;3.20;;;;;;;;;;5062218;27;96734;-75
2022/01/30 05:37:16;;;;;;;26.52;3.70;;;;;;;;;;5055994;27;96539;-75
2022/01/30 05:39:42;;;;;;;23.90;2.80;;;;;;;;;;5052465;27;95827;-76
2022/01/30 05:42:09;;;;;;;25.48;3.63;;;;;;;;;;5056191;27;95475;-73
2022/01/30 05:45:01;;;;;;;25.85;4.18;;;;;;;;;;5052325;27;96986;-75
2022/01/30 05:47:31;;;;;;;27.65;3.83;;;;;;;;;;5051867;27;97420;-77
2022/01/30 05:49:58;;;;;;;28.10;3.65;;;;;;;;;;5050461;27;96562;-74
2022/01/30 05:52:25;;;;;;;29.92;3.83;;;;;;;;;;5052081;27;97119;-74
2022/01/30 05:54:51;;;;;;;30.15;4.10;;;;;;;;;;5056257;27;96204;-75
2022/01/30 05:57:18;;;;;;;26.85;3.97;;;;;;;;;;5051047;27;95604;-74
2022/01/30 05:59:44;;;;;;;31.15;4.22;;;;;;;;;;5054191;27;97353;-76
2022/01/30 06:02:11;;;;;;;33.88;4.75;;;;;;;;;;5070980;27;97406;-78
2022/01/30 06:04:37;;;;;;;24.90;4.40;;;;;;;;;;5064918;27;95615;-77
2022/01/30 06:07:06;;;;;;;21.30;3.08;;;;;;;;;;5063908;27;97778;-78
2022/01/30 06:09:32;;;;;;;28.38;4.90;;;;;;;;;;5073852;27;95328;-77
2022/01/30 06:11:58;;;;;;;28.73;4.53;;;;;;;;;;5062307;27;97154;-78
2022/01/30 06:14:25;;;;;;;25.00;3.70;;;;;;;;;;5055466;27;97713;-76
2022/01/30 06:16:53;;;;;;;28.80;5.13;;;;;;;;;;5058960;27;95422;-78
2022/01/30 06:19:22;;;;;;;24.55;4.07;;;;;;;;;;5054508;27;97231;-77
2022/01/30 06:21:48;;;;;;;24.83;3.97;;;;;;;;;;5059738;27;97862;-78
2022/01/30 06:24:15;;;;;;;27.83;3.60;;;;;;;;;;5057807;27;95390;-78
2022/01/30 06:26:41;;;;;;;24.65;3.58;;;;;;;;;;5059503;27;97900;-78
2022/01/30 06:29:07;;;;;;;36.17;4.63;;;;;;;;;;5054274;27;95479;-76
2022/01/30 06:31:34;;;;;;;30.42;4.78;;;;;;;;;;5054614;27;96872;-76
2022/01/30 06:34:00;;;;;;;25.90;4.28;;;;;;;;;;5053924;27;97558;-78
2022/01/30 06:36:26;;;;;;;28.33;3.88;;;;;;;;;;5062114;27;95979;-77
2022/01/30 06:38:53;;;;;;;30.85;3.92;;;;;;;;;;5053632;27;96856;-78
2022/01/30 06:41:20;;;;;;;29.60;4.03;;;;;;;;;;5054306;27;97369;-78
2022/01/30 06:43:46;;;;;;;35.55;4.20;;;;;;;;;;5059378;27;95415;-78
2022/01/30 06:46:15;;;;;;;25.83;4.45;;;;;;;;;;5058958;27;97096;-75
2022/01/30 06:48:41;;;;;;;21.35;3.63;;;;;;;;;;5054340;27;95363;-73
2022/01/30 06:51:08;;;;;;;26.67;3.78;;;;;;;;;;5063904;27;96854;-76
2022/01/30 06:53:35;;;;;;;32.25;4.10;;;;;;;;;;5055845;27;97770;-75
2022/01/30 06:56:01;;;;;;;20.15;4.43;;;;;;;;;;5072075;27;96442;-75
2022/01/30 06:58:27;;;;;;;25.60;4.00;;;;;;;;;;5071548;27;95831;-77
2022/01/30 07:00:54;;;;;;;23.00;3.53;;;;;;;;;;5056878;27;96739;-76
2022/01/30 07:03:20;;;;;;;32.80;3.80;;;;;;;;;;5066030;27;95697;-77
2022/01/30 07:05:46;;;;;;;34.65;4.15;;;;;;;;;;5072137;27;97347;-79
2022/01/30 07:08:13;;;;;;;22.90;3.88;;;;;;;;;;5075577;27;97773;-79
2022/01/30 07:10:40;;;;;;;27.55;4.22;;;;;;;;;;5059993;27;96768;-77
2022/01/30 16:40:47;;;;;;;26.40;6.15;;;;;;;;;;5067013;27;1302326;-75
2022/01/30 16:43:22;;;;;;;34.50;6.25;;;;;;;;;;5081918;27;97194;-77
2022/01/30 16:45:52;;;;;;;37.38;6.72;;;;;;;;;;5081993;27;95181;-75
2022/01/30 16:48:19;;;;;;;36.70;5.32;;;;;;;;;;5089400;27;95481;-78
2022/01/30 16:50:47;;;;;;;37.80;5.45;;;;;;;;;;5086448;27;97425;-79
2022/01/30 16:53:13;;;;;;;37.83;5.75;;;;;;;;;;5073509;27;95348;-78
2022/01/30 16:55:41;;;;;;;27.23;5.50;;;;;;;;;;5069390;27;96621;-79
2022/01/30 16:58:07;;;;;;;35.35;5.50;;;;;;;;;;5077963;27;97739;-79
2022/01/30 17:00:34;;;;;;;29.40;5.28;;;;;;;;;;5091175;27;96103;-79
2022/01/30 17:03:00;;;;;;;29.92;4.13;;;;;;;;;;5084322;27;96755;-79
2022/01/30 17:05:27;;;;;;;39.28;5.60;;;;;;;;;;5071715;27;95675;-79
2022/01/30 17:07:53;;;;;;;34.20;4.97;;;;;;;;;;5069773;27;96877;-78
2022/01/30 17:10:21;;;;;;;41.72;6.10;;;;;;;;;;5068748;27;97393;-79
2022/01/30 17:15:21;;;;;;;34.78;4.78;;;;;;;;;;5070061;27;97059;-75
2022/01/30 17:17:48;;;;;;;38.10;5.70;;;;;;;;;;5078554;27;97804;-74
2022/01/30 17:20:14;;;;;;;37.80;6.22;;;;;;;;;;5086128;27;95126;-75
2022/01/30 17:23:00;;;;;;;33.25;4.95;;;;;;;;;;5090063;27;98482;-73
2022/01/30 17:25:29;;;;;;;27.83;5.68;;;;;;;;;;5068654;27;95222;-74
2022/01/30 17:27:59;;;;;;;39.17;7.10;;;;;;;;;;5077817;27;96758;-73
2022/01/30 17:30:27;;;;;;;31.05;6.47;;;;;;;;;;5073045;27;96399;-68
2022/01/30 17:32:54;;;;;;;30.65;6.60;;;;;;;;;;5071691;27;96677;-75
2022/01/30 17:35:20;;;;;;;36.65;6.00;;;;;;;;;;5082247;27;96855;-76
2022/01/30 17:37:47;;;;;;;43.28;6.70;;;;;;;;;;5077741;27;97240;-74
2022/01/30 17:40:13;;;;;;;24.60;5.20;;;;;;;;;;5080149;27;95786;-75
2022/01/30 17:42:39;;;;;;;42.80;5.85;;;;;;;;;;5084393;27;96768;-74
2022/01/30 17:45:23;;;;;;;30.13;4.88;;;;;;;;;;5076591;27;97120;-74
2022/01/30 17:47:50;;;;;;;22.90;4.50;;;;;;;;;;5080628;27;96798;-75
2022/01/30 17:50:17;;;;;;;30.25;4.75;;;;;;;;;;5080297;27;97590;-76
2022/01/30 17:52:44;;;;;;;30.38;5.35;;;;;;;;;;5074235;27;95458;-75
2022/01/30 17:55:11;;;;;;;29.83;5.78;;;;;;;;;;5068633;27;97015;-75
2022/01/30 17:57:39;;;;;;;30.50;4.63;;;;;;;;;;5063183;27;97212;-74
2022/01/30 18:00:06;;;;;;;24.30;4.95;;;;;;;;;;5070999;27;95216;-74
2022/01/30 18:02:33;;;;;;;32.00;5.82;;;;;;;;;;5061016;27;96821;-74
2022/01/30 18:04:59;;;;;;;27.95;5.28;;;;;;;;;;5058400;27;97305;-76
2022/01/30 18:07:28;;;;;;;33.72;6.85;;;;;;;;;;5072582;27;95444;-76
2022/01/30 18:09:55;;;;;;;30.77;5.97;;;;;;;;;;5074355;27;96079;-75
2022/01/30 18:12:22;;;;;;;25.42;5.40;;;;;;;;;;5061426;27;95459;-74
2022/01/30 18:14:48;;;;;;;26.60;6.05;;;;;;;;;;5069734;27;97468;-74
2022/01/30 18:17:15;;;;;;;31.38;5.88;;;;;;;;;;5066634;27;97445;-74
2022/01/30 18:19:42;;;;;;;23.88;5.00;;;;;;;;;;5065746;27;95394;-74
2022/01/30 18:22:08;;;;;;;33.35;5.20;;;;;;;;;;5062721;27;96784;-76
2022/01/30 18:24:35;;;;;;;38.58;5.03;;;;;;;;;;5070662;27;97334;-74
2022/01/30 18:27:02;;;;;;;29.52;5.32;;;;;;;;;;5070037;27;95353;-74
2022/01/30 18:29:28;;;;;;;36.63;7.45;;;;;;;;;;5062656;27;97071;-77
2022/01/30 18:31:55;;;;;;;36.30;7.88;;;;;;;;;;5067260;27;95297;-77
2022/01/30 18:34:22;;;;;;;27.20;6.38;;;;;;;;;;5066251;27;96718;-75
2022/01/30 18:36:55;;;;;;;37.00;8.50;;;;;;;;;;5058340;27;96839;-75
2022/01/30 18:39:29;;;;;;;29.63;7.45;;;;;;;;;;5068055;27;97009;-74
2022/01/30 18:41:56;;;;;;;32.10;6.63;;;;;;;;;;5062299;27;97073;-74
2022/01/30 18:44:22;;;;;;;38.88;7.60;;;;;;;;;;5065608;27;97231;-76
2022/01/30 18:46:49;;;;;;;29.05;7.50;;;;;;;;;;5055504;27;95349;-75
2022/01/30 18:49:16;;;;;;;35.65;6.88;;;;;;;;;;5064462;27;96894;-73
2022/01/30 18:51:42;;;;;;;37.90;6.93;;;;;;;;;;5066614;27;95585;-74
2022/01/30 18:54:09;;;;;;;31.67;6.50;;;;;;;;;;5071372;27;96690;-77
2022/01/30 18:56:35;;;;;;;33.20;7.38;;;;;;;;;;5071319;27;97396;-77
2022/01/30 18:59:02;;;;;;;27.67;6.00;;;;;;;;;;5067193;27;97441;-77
2022/01/30 19:01:28;;;;;;;25.02;6.72;;;;;;;;;;5073238;27;96824;-75
2022/01/30 19:03:56;;;;;;;38.22;7.05;;;;;;;;;;5054648;27;97348;-74
2022/01/30 19:06:25;;;;;;;29.08;6.35;;;;;;;;;;5055007;27;95405;-75
2022/01/30 19:08:51;;;;;;;29.73;5.90;;;;;;;;;;5065634;27;96920;-75
2022/01/30 19:11:17;;;;;;;26.17;6.20;;;;;;;;;;5076024;27;97426;-74
2022/01/30 19:13:44;;;;;;;30.15;5.65;;;;;;;;;;5061258;27;96339;-77
2022/01/30 19:16:11;;;;;;;33.58;5.72;;;;;;;;;;5058460;27;97366;-77
2022/01/30 19:18:37;;;;;;;33.70;6.00;;;;;;;;;;5059722;27;95666;-75
2022/01/30 19:21:04;;;;;;;27.70;6.03;;;;;;;;;;5060530;27;96797;-76
2022/01/30 19:23:30;;;;;;;27.90;4.95;;;;;;;;;;5062688;27;97437;-75
2022/01/30 19:25:57;;;;;;;32.33;4.95;;;;;;;;;;5056221;27;95278;-77
2022/01/30 19:28:23;;;;;;;34.80;6.20;;;;;;;;;;5068753;27;96840;-76
2022/01/30 19:30:49;;;;;;;20.13;4.70;;;;;;;;;;5067018;27;97257;-78
2022/01/30 19:33:16;;;;;;;26.40;5.22;;;;;;;;;;5062831;27;95390;-77
2022/01/30 19:35:45;;;;;;;31.60;6.93;;;;;;;;;;5058428;27;97592;-74
2022/01/30 19:38:12;;;;;;;36.63;6.05;;;;;;;;;;5060355;27;95158;-73
2022/01/30 19:40:38;;;;;;;29.63;5.22;;;;;;;;;;5060232;27;96646;-74
2022/01/30 19:43:04;;;;;;;27.42;5.25;;;;;;;;;;5057501;27;97371;-74
2022/01/30 19:45:35;;;;;;;21.88;5.20;;;;;;;;;;5053243;27;95331;-74
2022/01/30 19:48:05;;;;;;;30.63;6.80;;;;;;;;;;5064596;27;96823;-74
2022/01/30 19:50:31;;;;;;;22.55;5.20;;;;;;;;;;5071780;27;97242;-74
2022/01/30 19:52:58;;;;;;;20.40;5.18;;;;;;;;;;5061998;27;95969;-74
2022/01/30 19:55:25;;;;;;;26.40;5.05;;;;;;;;;;5074607;27;97231;-74
2022/01/30 19:57:51;;;;;;;26.42;4.88;;;;;;;;;;5070861;27;95450;-74
2022/01/30 20:00:19;;;;;;;23.67;5.70;;;;;;;;;;5060796;27;97554;-74
2022/01/30 20:02:46;;;;;;;27.55;5.72;;;;;;;;;;5053707;27;97472;-75
2022/01/30 20:05:14;;;;;;;20.48;5.28;;;;;;;;;;5061077;27;96084;-75
2022/01/30 20:07:40;;;;;;;23.67;5.07;;;;;;;;;;5052519;27;96648;-74
2022/01/30 20:10:08;;;;;;;17.08;4.40;;;;;;;;;;5052801;27;97410;-75
2022/01/30 20:12:35;;;;;;;26.30;5.80;;;;;;;;;;5061900;27;95423;-74
2022/01/30 20:15:03;;;;;;;32.13;5.85;;;;;;;;;;5072249;27;96936;-75
2022/01/30 20:17:29;;;;;;;28.85;5.55;;;;;;;;;;5075279;27;97609;-74
2022/01/30 20:19:56;;;;;;;31.58;5.55;;;;;;;;;;5059121;27;96987;-74
2022/01/30 20:22:23;;;;;;;26.08;5.70;;;;;;;;;;5071112;27;98290;-77
2022/01/30 20:24:49;;;;;;;24.10;5.45;;;;;;;;;;5073680;27;95425;-74
2022/01/30 20:27:15;;;;;;;27.20;6.25;;;;;;;;;;5072151;27;96740;-75
2022/01/30 20:29:42;;;;;;;40.35;5.90;;;;;;;;;;5069109;27;97562;-74
2022/01/30 20:32:12;;;;;;;23.98;4.78;;;;;;;;;;5058197;27;95531;-74
2022/01/30 20:34:41;;;;;;;37.95;5.30;;;;;;;;;;5050845;27;97343;-75
2022/01/30 20:37:07;;;;;;;26.35;5.00;;;;;;;;;;5051448;27;97370;-74
2022/01/30 20:39:39;;;;;;;24.95;4.78;;;;;;;;;;5055959;27;95212;-75
2022/01/30 20:42:05;;;;;;;22.20;4.97;;;;;;;;;;5052462;27;97382;-75
2022/01/30 20:44:31;;;;;;;29.85;5.20;;;;;;;;;;5054311;27;95445;-74
2022/01/30 20:46:58;;;;;;;24.75;5.45;;;;;;;;;;5064059;27;98001;-75
2022/01/30 20:49:27;;;;;;;30.33;5.88;;;;;;;;;;5054465;27;97423;-75
2022/01/30 20:51:54;;;;;;;21.67;4.85;;;;;;;;;;5073090;27;95318;-77
2022/01/30 20:54:21;;;;;;;27.85;6.13;;;;;;;;;;5073351;27;96968;-75
2022/01/30 20:56:48;;;;;;;23.00;4.82;;;;;;;;;;5070980;27;97538;-74
2022/01/30 20:59:15;;;;;;;28.90;4.85;;;;;;;;;;5076123;27;95387;-77
2022/01/30 21:01:41;;;;;;;22.40;4.93;;;;;;;;;;5054753;27;97835;-74
2022/01/30 21:04:08;;;;;;;35.65;5.13;;;;;;;;;;5050790;27;95406;-75
2022/01/30 21:06:34;;;;;;;17.63;4.60;;;;;;;;;;5051570;27;97175;-75
2022/01/30 21:09:04;;;;;;;25.85;5.13;;;;;;;;;;5051978;27;96258;-75
2022/01/30 21:11:30;;;;;;;22.10;4.88;;;;;;;;;;5052398;27;95243;-75
2022/01/30 21:14:03;;;;;;;24.60;5.00;;;;;;;;;;5059073;27;96873;-75
2022/01/30 21:16:29;;;;;;;28.92;5.50;;;;;;;;;;5071888;27;96585;-77
2022/01/30 21:19:00;;;;;;;32.30;5.90;;;;;;;;;;5072096;27;95210;-76
2022/01/30 21:21:27;;;;;;;28.92;4.85;;;;;;;;;;5075465;27;96729;-77
2022/01/30 21:23:53;;;;;;;28.25;4.25;;;;;;;;;;5072144;27;95273;-77
2022/01/30 21:26:23;;;;;;;20.25;4.90;;;;;;;;;;5068415;27;96748;-77
2022/01/30 21:28:50;;;;;;;27.85;4.95;;;;;;;;;;5074355;27;97590;-77
2022/01/30 21:31:16;;;;;;;29.42;4.85;;;;;;;;;;5061063;27;95198;-77
2022/01/30 21:33:47;;;;;;;26.27;4.65;;;;;;;;;;5055959;27;97149;-78
2022/01/30 21:36:13;;;;;;;20.38;4.75;;;;;;;;;;5073347;27;97233;-78
2022/01/30 21:38:40;;;;;;;21.35;4.60;;;;;;;;;;5057630;27;95480;-78
2022/01/30 21:41:06;;;;;;;28.95;5.10;;;;;;;;;;5071238;27;97110;-77
2022/01/30 21:43:33;;;;;;;23.17;5.03;;;;;;;;;;5075985;27;97323;-77
2022/01/30 21:45:59;;;;;;;21.98;5.90;;;;;;;;;;5054596;27;96994;-77
2022/01/30 21:48:25;;;;;;;29.98;5.35;;;;;;;;;;5069189;27;97589;-77
2022/01/30 21:50:52;;;;;;;33.25;5.75;;;;;;;;;;5076416;27;96708;-77
2022/01/30 21:53:18;;;;;;;21.92;5.68;;;;;;;;;;5075739;27;96811;-77
2022/01/30 21:55:45;;;;;;;25.58;5.47;;;;;;;;;;5075418;27;97357;-74
2022/01/30 21:58:11;;;;;;;22.60;5.70;;;;;;;;;;5055882;27;95510;-74
2022/01/30 22:00:38;;;;;;;24.13;5.45;;;;;;;;;;5056080;27;96935;-74
2022/01/30 22:03:04;;;;;;;26.98;5.55;;;;;;;;;;5055070;27;97222;-74
2022/01/30 22:05:32;;;;;;;21.70;5.25;;;;;;;;;;5059842;27;95410;-75
2022/01/30 22:07:58;;;;;;;27.73;6.25;;;;;;;;;;5054548;27;97279;-75
2022/01/30 22:10:25;;;;;;;28.85;5.95;;;;;;;;;;5055112;27;95219;-75
2022/01/30 22:12:54;;;;;;;26.92;6.60;;;;;;;;;;5055051;27;96626;-74
2022/01/30 22:15:22;;;;;;;32.60;5.88;;;;;;;;;;5072197;27;97993;-75
2022/01/30 22:17:49;;;;;;;29.40;6.13;;;;;;;;;;5075070;27;95364;-74
2022/01/30 22:20:16;;;;;;;29.80;6.50;;;;;;;;;;5074917;27;97107;-74
2022/01/30 22:22:43;;;;;;;24.35;5.57;;;;;;;;;;5072579;27;97418;-74
2022/01/30 22:25:10;;;;;;;26.55;5.50;;;;;;;;;;5072118;27;95325;-74
2022/01/30 22:27:37;;;;;;;24.60;5.78;;;;;;;;;;5078090;27;96849;-75
2022/01/30 22:30:09;;;;;;;27.08;6.07;;;;;;;;;;5075153;27;95213;-74
2022/01/30 22:32:37;;;;;;;20.23;5.25;;;;;;;;;;5075464;27;96880;-74
2022/01/30 22:35:04;;;;;;;28.08;5.93;;;;;;;;;;5063256;27;96951;-75
2022/01/30 22:37:30;;;;;;;23.30;5.55;;;;;;;;;;5054558;27;95351;-74
2022/01/30 22:39:57;;;;;;;25.10;5.70;;;;;;;;;;5069459;27;97474;-75
2022/01/30 22:42:24;;;;;;;28.92;6.93;;;;;;;;;;5073258;27;97384;-75
2022/01/30 22:44:52;;;;;;;25.42;6.53;;;;;;;;;;5075087;27;95302;-74
2022/01/30 22:47:21;;;;;;;23.95;7.20;;;;;;;;;;5075052;27;97253;-74
2022/01/30 22:49:47;;;;;;;24.10;6.30;;;;;;;;;;5077534;27;97400;-75
2022/01/30 22:52:14;;;;;;;19.50;6.00;;;;;;;;;;5075102;27;96283;-74
2022/01/30 22:54:41;;;;;;;24.17;6.88;;;;;;;;;;5069987;27;97947;-75
2022/01/30 22:57:08;;;;;;;27.52;7.45;;;;;;;;;;5053669;27;95352;-74
2022/01/30 22:59:35;;;;;;;27.02;7.30;;;;;;;;;;5054311;27;97344;-77
2022/01/30 23:02:04;;;;;;;32.58;8.07;;;;;;;;;;5053966;27;97810;-78
2022/01/30 23:04:31;;;;;;;28.05;7.55;;;;;;;;;;5053917;27;95355;-78
2022/01/30 23:06:59;;;;;;;26.20;7.65;;;;;;;;;;5054187;27;96728;-77
2022/01/30 23:09:25;;;;;;;28.13;8.98;;;;;;;;;;5060878;27;97340;-76
2022/01/30 23:11:51;;;;;;;21.65;7.78;;;;;;;;;;5072965;27;96941;-78
2022/01/30 23:14:18;;;;;;;24.60;7.47;;;;;;;;;;5074668;27;97411;-77
2022/01/30 23:16:44;;;;;;;24.40;8.05;;;;;;;;;;5074575;27;95356;-77
2022/01/30 23:19:10;;;;;;;23.27;7.35;;;;;;;;;;5074067;27;96852;-75
2022/01/30 23:21:37;;;;;;;21.95;7.63;;;;;;;;;;5074263;27;97737;-77
2022/01/30 23:24:03;;;;;;;19.55;7.57;;;;;;;;;;5073554;27;95349;-77
2022/01/30 23:26:32;;;;;;;20.35;7.30;;;;;;;;;;5065921;27;97097;-77
2022/01/30 23:29:05;;;;;;;25.63;7.90;;;;;;;;;;5053209;27;97349;-75
2022/01/30 23:31:37;;;;;;;21.83;7.40;;;;;;;;;;5057049;27;95872;-76
2022/01/30 23:34:04;;;;;;;24.55;7.38;;;;;;;;;;5055670;27;96254;-76
2022/01/30 23:36:30;;;;;;;20.63;7.25;;;;;;;;;;5074613;27;95419;-78
2022/01/30 23:38:57;;;;;;;26.77;7.70;;;;;;;;;;5072920;27;97085;-78
2022/01/30 23:41:26;;;;;;;23.48;7.85;;;;;;;;;;5073218;27;98362;-78
2022/01/30 23:43:55;;;;;;;23.35;7.10;;;;;;;;;;5073778;27;95124;-78
2022/01/30 23:46:22;;;;;;;28.08;8.05;;;;;;;;;;5073640;27;96937;-78
2022/01/30 23:48:49;;;;;;;24.83;7.57;;;;;;;;;;5072499;27;97827;-77
2022/01/30 23:51:15;;;;;;;13.65;7.00;;;;;;;;;;5073910;27;95206;-76
2022/01/30 23:53:42;;;;;;;23.13;7.88;;;;;;;;;;5076788;27;97384;-77
2022/01/30 23:56:08;;;;;;;32.80;7.80;;;;;;;;;;5064686;27;95380;-76
2022/01/30 23:58:34;;;;;;;24.33;7.07;;;;;;;;;;5053073;27;97033;-77
